sensor_id;sensor_type;location;lat;lon;timestamp;temperature;humidity
25058;DHT22;13057;50.978;11.034;2022-11-18T00:00:28;9.00;99.90
25058;DHT22;13057;50.978;11.034;2022-11-18T00:02:54;9.00;99.90
25058;DHT22;13057;50.978;11.034;2022-11-18T00:05:20;9.00;99.90
25058;DHT22;13057;50.978;11.034;2022-11-18T00:07:46;9.00;99.90
25058;DHT22;13057;50.978;11.034;2022-11-18T00:10:11;9.00;99.90
25058;DHT22;13057;50.978;11.034;2022-11-18T00:12:37;8.90;99.90
25058;DHT22;13057;50.978;11.034;2022-11-18T00:15:15;9.00;99.90
25058;DHT22;13057;50.978;11.034;2022-11-18T00:17:41;8.90;99.90
25058;DHT22;13057;50.978;11.034;2022-11-18T00:20:07;8.90;99.90
25058;DHT22;13057;50.978;11.034;2022-11-18T00:22:33;8.90;99.90
25058;DHT22;13057;50.978;11.034;2022-11-18T00:24:59;8.90;99.90
25058;DHT22;13057;50.978;11.034;2022-11-18T00:27:29;8.80;99.90
25058;DHT22;13057;50.978;11.034;2022-11-18T00:29:56;8.80;99.90
25058;DHT22;13057;50.978;11.034;2022-11-18T00:32:22;8.80;99.90
25058;DHT22;13057;50.978;11.034;2022-11-18T00:34:47;8.60;99.90
25058;DHT22;13057;50.978;11.034;2022-11-18T00:37:13;8.60;99.90
25058;DHT22;13057;50.978;11.034;2022-11-18T00:39:40;8.50;99.90
25058;DHT22;13057;50.978;11.034;2022-11-18T00:42:06;8.50;99.90
25058;DHT22;13057;50.978;11.034;2022-11-18T00:44:43;8.50;99.90
25058;DHT22;13057;50.978;11.034;2022-11-18T00:47:09;8.60;99.90
25058;DHT22;13057;50.978;11.034;2022-11-18T00:49:35;8.50;99.90
25058;DHT22;13057;50.978;11.034;2022-11-18T00:52:01;8.60;99.90
25058;DHT22;13057;50.978;11.034;2022-11-18T00:54:27;8.70;99.90
25058;DHT22;13057;50.978;11.034;2022-11-18T00:56:52;8.70;99.90
25058;DHT22;13057;50.978;11.034;2022-11-18T00:59:18;8.70;99.90
25058;DHT22;13057;50.978;11.034;2022-11-18T01:01:44;8.70;99.90
25058;DHT22;13057;50.978;11.034;2022-11-18T01:04:10;8.80;99.90
25058;DHT22;13057;50.978;11.034;2022-11-18T01:06:36;8.70;99.90
25058;DHT22;13057;50.978;11.034;2022-11-18T01:09:02;8.60;99.90
25058;DHT22;13057;50.978;11.034;2022-11-18T01:11:27;8.50;99.90
25058;DHT22;13057;50.978;11.034;2022-11-18T01:14:13;8.50;99.90
25058;DHT22;13057;50.978;11.034;2022-11-18T01:16:39;8.50;99.90
25058;DHT22;13057;50.978;11.034;2022-11-18T01:19:05;8.50;99.90
25058;DHT22;13057;50.978;11.034;2022-11-18T01:21:31;8.50;99.90
25058;DHT22;13057;50.978;11.034;2022-11-18T01:23:57;8.50;99.90
25058;DHT22;13057;50.978;11.034;2022-11-18T01:26:22;8.50;99.90
25058;DHT22;13057;50.978;11.034;2022-11-18T01:28:48;8.40;99.90
25058;DHT22;13057;50.978;11.034;2022-11-18T01:31:17;8.40;99.90
25058;DHT22;13057;50.978;11.034;2022-11-18T01:33:44;8.30;99.90
25058;DHT22;13057;50.978;11.034;2022-11-18T01:36:15;8.30;99.90
25058;DHT22;13057;50.978;11.034;2022-11-18T01:38:41;8.30;99.90
25058;DHT22;13057;50.978;11.034;2022-11-18T01:41:07;8.30;99.90
25058;DHT22;13057;50.978;11.034;2022-11-18T01:43:53;8.30;99.90
25058;DHT22;13057;50.978;11.034;2022-11-18T01:46:21;8.30;99.90
25058;DHT22;13057;50.978;11.034;2022-11-18T01:48:51;8.20;99.90
25058;DHT22;13057;50.978;11.034;2022-11-18T01:51:22;8.20;99.90
25058;DHT22;13057;50.978;11.034;2022-11-18T01:53:55;8.20;99.90
25058;DHT22;13057;50.978;11.034;2022-11-18T01:56:36;8.10;99.90
25058;DHT22;13057;50.978;11.034;2022-11-18T01:59:08;8.20;99.90
25058;DHT22;13057;50.978;11.034;2022-11-18T02:01:34;8.20;99.90
25058;DHT22;13057;50.978;11.034;2022-11-18T02:04:00;8.20;99.90
25058;DHT22;13057;50.978;11.034;2022-11-18T02:06:26;8.10;99.90
25058;DHT22;13057;50.978;11.034;2022-11-18T02:08:52;8.00;99.90
25058;DHT22;13057;50.978;11.034;2022-11-18T02:11:18;8.00;99.90
25058;DHT22;13057;50.978;11.034;2022-11-18T02:13:57;8.00;99.90
25058;DHT22;13057;50.978;11.034;2022-11-18T02:22:24;8.10;99.90
25058;DHT22;13057;50.978;11.034;2022-11-18T02:28:08;8.10;99.90
25058;DHT22;13057;50.978;11.034;2022-11-18T02:30:56;8.20;99.90
25058;DHT22;13057;50.978;11.034;2022-11-18T02:33:27;8.20;99.90
25058;DHT22;13057;50.978;11.034;2022-11-18T02:36:15;8.10;99.90
25058;DHT22;13057;50.978;11.034;2022-11-18T02:38:47;8.10;99.90
25058;DHT22;13057;50.978;11.034;2022-11-18T02:41:19;8.00;99.90
25058;DHT22;13057;50.978;11.034;2022-11-18T02:43:51;8.00;99.90
25058;DHT22;13057;50.978;11.034;2022-11-18T02:46:28;8.10;99.90
25058;DHT22;13057;50.978;11.034;2022-11-18T02:48:59;8.00;99.90
25058;DHT22;13057;50.978;11.034;2022-11-18T02:51:28;7.90;99.90
25058;DHT22;13057;50.978;11.034;2022-11-18T02:53:59;7.90;99.90
25058;DHT22;13057;50.978;11.034;2022-11-18T02:56:28;7.90;99.90
25058;DHT22;13057;50.978;11.034;2022-11-18T02:58:55;8.00;99.90
25058;DHT22;13057;50.978;11.034;2022-11-18T03:01:25;8.10;99.90
25058;DHT22;13057;50.978;11.034;2022-11-18T03:03:51;8.00;99.90
25058;DHT22;13057;50.978;11.034;2022-11-18T03:06:30;8.00;99.90
25058;DHT22;13057;50.978;11.034;2022-11-18T03:09:12;8.00;99.90
25058;DHT22;13057;50.978;11.034;2022-11-18T03:11:50;8.00;99.90
25058;DHT22;13057;50.978;11.034;2022-11-18T03:14:27;8.00;99.90
25058;DHT22;13057;50.978;11.034;2022-11-18T03:17:08;8.00;99.90
25058;DHT22;13057;50.978;11.034;2022-11-18T03:19:53;7.90;99.90
25058;DHT22;13057;50.978;11.034;2022-11-18T03:22:35;7.90;99.90
25058;DHT22;13057;50.978;11.034;2022-11-18T03:25:09;7.90;99.90
25058;DHT22;13057;50.978;11.034;2022-11-18T03:27:45;7.80;99.90
25058;DHT22;13057;50.978;11.034;2022-11-18T03:30:17;7.70;99.90
25058;DHT22;13057;50.978;11.034;2022-11-18T03:32:49;7.70;99.90
25058;DHT22;13057;50.978;11.034;2022-11-18T03:35:20;7.80;99.90
25058;DHT22;13057;50.978;11.034;2022-11-18T03:37:51;7.70;99.90
25058;DHT22;13057;50.978;11.034;2022-11-18T03:40:23;7.80;99.90
25058;DHT22;13057;50.978;11.034;2022-11-18T03:42:56;7.80;99.90
25058;DHT22;13057;50.978;11.034;2022-11-18T03:45:28;7.70;99.90
25058;DHT22;13057;50.978;11.034;2022-11-18T03:48:06;7.70;99.90
25058;DHT22;13057;50.978;11.034;2022-11-18T03:50:38;7.70;99.90
25058;DHT22;13057;50.978;11.034;2022-11-18T03:53:06;7.70;99.90
25058;DHT22;13057;50.978;11.034;2022-11-18T03:55:36;7.70;99.90
25058;DHT22;13057;50.978;11.034;2022-11-18T03:58:11;7.70;99.90
25058;DHT22;13057;50.978;11.034;2022-11-18T04:00:43;7.70;99.90
25058;DHT22;13057;50.978;11.034;2022-11-18T04:03:10;7.70;99.90
25058;DHT22;13057;50.978;11.034;2022-11-18T04:05:39;7.70;99.90
25058;DHT22;13057;50.978;11.034;2022-11-18T04:08:12;7.90;99.90
25058;DHT22;13057;50.978;11.034;2022-11-18T04:10:49;7.90;99.90
25058;DHT22;13057;50.978;11.034;2022-11-18T04:13:21;7.80;99.90
25058;DHT22;13057;50.978;11.034;2022-11-18T04:15:48;7.80;99.90
25058;DHT22;13057;50.978;11.034;2022-11-18T04:18:14;7.80;99.90
25058;DHT22;13057;50.978;11.034;2022-11-18T04:20:40;7.80;99.90
25058;DHT22;13057;50.978;11.034;2022-11-18T04:23:06;7.80;99.90
25058;DHT22;13057;50.978;11.034;2022-11-18T04:25:32;7.90;99.90
25058;DHT22;13057;50.978;11.034;2022-11-18T04:27:58;8.00;99.90
25058;DHT22;13057;50.978;11.034;2022-11-18T04:30:25;7.90;99.90
25058;DHT22;13057;50.978;11.034;2022-11-18T04:32:51;7.90;99.90
25058;DHT22;13057;50.978;11.034;2022-11-18T04:35:17;7.90;99.90
25058;DHT22;13057;50.978;11.034;2022-11-18T04:37:43;7.90;99.90
25058;DHT22;13057;50.978;11.034;2022-11-18T04:40:09;7.80;99.90
25058;DHT22;13057;50.978;11.034;2022-11-18T04:42:35;7.70;99.90
25058;DHT22;13057;50.978;11.034;2022-11-18T04:45:01;7.70;99.90
25058;DHT22;13057;50.978;11.034;2022-11-18T04:47:27;7.70;99.90
25058;DHT22;13057;50.978;11.034;2022-11-18T04:49:53;7.70;99.90
25058;DHT22;13057;50.978;11.034;2022-11-18T04:52:19;7.70;99.90
25058;DHT22;13057;50.978;11.034;2022-11-18T04:54:45;7.80;99.90
25058;DHT22;13057;50.978;11.034;2022-11-18T04:57:11;7.80;99.90
25058;DHT22;13057;50.978;11.034;2022-11-18T04:59:37;7.80;99.90
25058;DHT22;13057;50.978;11.034;2022-11-18T05:02:03;7.70;99.90
25058;DHT22;13057;50.978;11.034;2022-11-18T05:04:31;7.70;99.90
25058;DHT22;13057;50.978;11.034;2022-11-18T05:06:59;7.70;99.90
25058;DHT22;13057;50.978;11.034;2022-11-18T05:09:25;7.70;99.90
25058;DHT22;13057;50.978;11.034;2022-11-18T05:11:51;7.70;99.90
25058;DHT22;13057;50.978;11.034;2022-11-18T05:14:29;7.70;99.90
25058;DHT22;13057;50.978;11.034;2022-11-18T05:16:57;7.60;99.90
25058;DHT22;13057;50.978;11.034;2022-11-18T05:19:23;7.60;99.90
25058;DHT22;13057;50.978;11.034;2022-11-18T05:21:49;7.60;99.90
25058;DHT22;13057;50.978;11.034;2022-11-18T05:24:15;7.60;99.90
25058;DHT22;13057;50.978;11.034;2022-11-18T05:26:41;7.60;99.90
25058;DHT22;13057;50.978;11.034;2022-11-18T05:29:07;7.60;99.90
25058;DHT22;13057;50.978;11.034;2022-11-18T05:31:33;7.60;99.90
25058;DHT22;13057;50.978;11.034;2022-11-18T05:33:59;7.60;99.90
25058;DHT22;13057;50.978;11.034;2022-11-18T05:36:25;7.60;99.90
25058;DHT22;13057;50.978;11.034;2022-11-18T05:38:51;7.50;99.90
25058;DHT22;13057;50.978;11.034;2022-11-18T05:41:18;7.40;99.90
25058;DHT22;13057;50.978;11.034;2022-11-18T05:43:55;7.50;99.90
25058;DHT22;13057;50.978;11.034;2022-11-18T05:46:22;7.50;99.90
25058;DHT22;13057;50.978;11.034;2022-11-18T05:48:47;7.40;99.90
25058;DHT22;13057;50.978;11.034;2022-11-18T05:51:13;7.40;99.90
25058;DHT22;13057;50.978;11.034;2022-11-18T05:53:39;7.40;99.90
25058;DHT22;13057;50.978;11.034;2022-11-18T05:56:15;7.30;99.90
25058;DHT22;13057;50.978;11.034;2022-11-18T05:58:43;7.30;99.90
25058;DHT22;13057;50.978;11.034;2022-11-18T06:01:09;7.30;99.90
25058;DHT22;13057;50.978;11.034;2022-11-18T06:03:39;7.30;99.90
25058;DHT22;13057;50.978;11.034;2022-11-18T06:06:07;7.30;99.90
25058;DHT22;13057;50.978;11.034;2022-11-18T06:08:38;7.30;99.90
25058;DHT22;13057;50.978;11.034;2022-11-18T06:11:06;7.40;99.90
25058;DHT22;13057;50.978;11.034;2022-11-18T06:13:40;7.40;99.90
25058;DHT22;13057;50.978;11.034;2022-11-18T06:16:07;7.30;99.90
25058;DHT22;13057;50.978;11.034;2022-11-18T06:18:33;7.20;99.90
25058;DHT22;13057;50.978;11.034;2022-11-18T06:21:03;7.20;99.90
25058;DHT22;13057;50.978;11.034;2022-11-18T06:23:33;7.20;99.90
25058;DHT22;13057;50.978;11.034;2022-11-18T06:26:00;7.20;99.90
25058;DHT22;13057;50.978;11.034;2022-11-18T06:28:26;7.20;99.90
25058;DHT22;13057;50.978;11.034;2022-11-18T06:30:53;7.20;99.90
25058;DHT22;13057;50.978;11.034;2022-11-18T06:33:19;7.30;99.90
25058;DHT22;13057;50.978;11.034;2022-11-18T06:35:45;7.20;99.90
25058;DHT22;13057;50.978;11.034;2022-11-18T06:38:11;7.20;99.90
25058;DHT22;13057;50.978;11.034;2022-11-18T06:40:37;7.20;99.90
25058;DHT22;13057;50.978;11.034;2022-11-18T06:43:06;7.30;99.90
25058;DHT22;13057;50.978;11.034;2022-11-18T06:45:44;7.20;99.90
25058;DHT22;13057;50.978;11.034;2022-11-18T06:48:30;7.20;99.90
25058;DHT22;13057;50.978;11.034;2022-11-18T06:50:56;7.20;99.90
25058;DHT22;13057;50.978;11.034;2022-11-18T06:53:22;7.20;99.90
25058;DHT22;13057;50.978;11.034;2022-11-18T06:55:48;7.20;99.90
25058;DHT22;13057;50.978;11.034;2022-11-18T06:58:14;7.20;99.90
25058;DHT22;13057;50.978;11.034;2022-11-18T07:00:40;7.10;99.90
25058;DHT22;13057;50.978;11.034;2022-11-18T07:03:05;7.10;99.90
25058;DHT22;13057;50.978;11.034;2022-11-18T07:05:32;7.10;99.90
25058;DHT22;13057;50.978;11.034;2022-11-18T07:07:57;7.10;99.90
25058;DHT22;13057;50.978;11.034;2022-11-18T07:10:23;7.00;99.90
25058;DHT22;13057;50.978;11.034;2022-11-18T07:12:49;6.90;99.90
25058;DHT22;13057;50.978;11.034;2022-11-18T07:15:15;6.90;99.90
25058;DHT22;13057;50.978;11.034;2022-11-18T07:17:41;6.80;99.90
25058;DHT22;13057;50.978;11.034;2022-11-18T07:20:07;6.80;99.90
25058;DHT22;13057;50.978;11.034;2022-11-18T07:22:33;6.80;99.90
25058;DHT22;13057;50.978;11.034;2022-11-18T07:24:59;6.80;99.90
25058;DHT22;13057;50.978;11.034;2022-11-18T07:27:25;6.80;99.90
25058;DHT22;13057;50.978;11.034;2022-11-18T07:29:51;6.90;99.90
25058;DHT22;13057;50.978;11.034;2022-11-18T07:32:16;6.80;99.90
25058;DHT22;13057;50.978;11.034;2022-11-18T07:34:42;6.80;99.90
25058;DHT22;13057;50.978;11.034;2022-11-18T07:37:09;6.70;99.90
25058;DHT22;13057;50.978;11.034;2022-11-18T07:39:35;6.60;99.90
25058;DHT22;13057;50.978;11.034;2022-11-18T07:42:01;6.70;99.90
25058;DHT22;13057;50.978;11.034;2022-11-18T07:44:27;6.70;99.90
25058;DHT22;13057;50.978;11.034;2022-11-18T07:46:55;6.70;99.90
25058;DHT22;13057;50.978;11.034;2022-11-18T07:49:21;6.70;99.90
25058;DHT22;13057;50.978;11.034;2022-11-18T07:51:47;6.70;99.90
25058;DHT22;13057;50.978;11.034;2022-11-18T07:54:13;6.60;99.90
25058;DHT22;13057;50.978;11.034;2022-11-18T07:56:41;6.60;99.90
25058;DHT22;13057;50.978;11.034;2022-11-18T07:59:07;6.60;99.90
25058;DHT22;13057;50.978;11.034;2022-11-18T08:01:33;6.60;99.90
25058;DHT22;13057;50.978;11.034;2022-11-18T08:04:05;6.50;99.90
25058;DHT22;13057;50.978;11.034;2022-11-18T08:06:32;6.50;99.90
25058;DHT22;13057;50.978;11.034;2022-11-18T08:08:59;6.50;99.90
25058;DHT22;13057;50.978;11.034;2022-11-18T08:11:25;6.50;99.90
25058;DHT22;13057;50.978;11.034;2022-11-18T08:13:51;6.70;99.90
25058;DHT22;13057;50.978;11.034;2022-11-18T08:16:19;6.60;99.90
25058;DHT22;13057;50.978;11.034;2022-11-18T08:18:45;6.60;99.90
25058;DHT22;13057;50.978;11.034;2022-11-18T08:21:12;6.60;99.90
25058;DHT22;13057;50.978;11.034;2022-11-18T08:23:38;6.60;99.90
25058;DHT22;13057;50.978;11.034;2022-11-18T08:26:10;6.60;99.90
25058;DHT22;13057;50.978;11.034;2022-11-18T08:28:36;6.60;99.90
25058;DHT22;13057;50.978;11.034;2022-11-18T08:31:17;6.60;99.90
25058;DHT22;13057;50.978;11.034;2022-11-18T08:33:43;6.50;99.90
25058;DHT22;13057;50.978;11.034;2022-11-18T08:36:14;6.50;99.90
25058;DHT22;13057;50.978;11.034;2022-11-18T08:38:40;6.60;99.90
25058;DHT22;13057;50.978;11.034;2022-11-18T08:41:06;6.50;99.90
25058;DHT22;13057;50.978;11.034;2022-11-18T08:43:34;6.50;99.90
25058;DHT22;13057;50.978;11.034;2022-11-18T08:46:01;6.40;99.90
25058;DHT22;13057;50.978;11.034;2022-11-18T08:48:27;6.40;99.90
25058;DHT22;13057;50.978;11.034;2022-11-18T08:50:52;6.40;99.90
25058;DHT22;13057;50.978;11.034;2022-11-18T08:53:19;6.30;99.90
25058;DHT22;13057;50.978;11.034;2022-11-18T08:55:45;6.30;99.90
25058;DHT22;13057;50.978;11.034;2022-11-18T08:58:11;6.30;99.90
25058;DHT22;13057;50.978;11.034;2022-11-18T09:00:37;6.20;99.90
25058;DHT22;13057;50.978;11.034;2022-11-18T09:03:03;6.30;99.90
25058;DHT22;13057;50.978;11.034;2022-11-18T09:05:29;6.40;99.90
25058;DHT22;13057;50.978;11.034;2022-11-18T09:07:55;6.40;99.90
25058;DHT22;13057;50.978;11.034;2022-11-18T09:10:20;6.30;99.90
25058;DHT22;13057;50.978;11.034;2022-11-18T09:12:46;6.30;99.90
25058;DHT22;13057;50.978;11.034;2022-11-18T09:15:12;6.30;99.90
25058;DHT22;13057;50.978;11.034;2022-11-18T09:17:38;6.40;99.90
25058;DHT22;13057;50.978;11.034;2022-11-18T09:20:04;6.30;99.90
25058;DHT22;13057;50.978;11.034;2022-11-18T09:22:30;6.20;99.90
25058;DHT22;13057;50.978;11.034;2022-11-18T09:24:56;6.20;99.90
25058;DHT22;13057;50.978;11.034;2022-11-18T09:27:22;6.20;99.90
25058;DHT22;13057;50.978;11.034;2022-11-18T09:29:47;6.20;99.90
25058;DHT22;13057;50.978;11.034;2022-11-18T09:32:13;6.20;99.90
25058;DHT22;13057;50.978;11.034;2022-11-18T09:34:39;6.20;99.90
25058;DHT22;13057;50.978;11.034;2022-11-18T09:37:05;6.10;99.90
25058;DHT22;13057;50.978;11.034;2022-11-18T09:39:33;6.20;99.90
25058;DHT22;13057;50.978;11.034;2022-11-18T09:45:06;6.10;99.90
25058;DHT22;13057;50.978;11.034;2022-11-18T09:47:34;6.00;99.90
25058;DHT22;13057;50.978;11.034;2022-11-18T09:50:11;6.00;99.90
25058;DHT22;13057;50.978;11.034;2022-11-18T09:52:42;6.00;99.90
25058;DHT22;13057;50.978;11.034;2022-11-18T09:55:14;6.00;99.90
25058;DHT22;13057;50.978;11.034;2022-11-18T09:57:45;5.90;99.90
25058;DHT22;13057;50.978;11.034;2022-11-18T10:00:15;5.90;99.90
25058;DHT22;13057;50.978;11.034;2022-11-18T10:03:03;6.00;99.90
25058;DHT22;13057;50.978;11.034;2022-11-18T10:05:45;6.00;99.90
25058;DHT22;13057;50.978;11.034;2022-11-18T10:08:23;5.90;99.90
25058;DHT22;13057;50.978;11.034;2022-11-18T10:11:00;6.00;99.90
25058;DHT22;13057;50.978;11.034;2022-11-18T10:13:47;6.00;99.90
25058;DHT22;13057;50.978;11.034;2022-11-18T10:16:37;5.90;99.90
25058;DHT22;13057;50.978;11.034;2022-11-18T10:19:24;5.90;99.90
25058;DHT22;13057;50.978;11.034;2022-11-18T10:22:17;5.90;99.90
25058;DHT22;13057;50.978;11.034;2022-11-18T10:24:49;5.80;99.90
25058;DHT22;13057;50.978;11.034;2022-11-18T10:27:16;5.90;99.90
25058;DHT22;13057;50.978;11.034;2022-11-18T10:29:44;5.90;99.90
25058;DHT22;13057;50.978;11.034;2022-11-18T10:32:14;5.90;99.90
25058;DHT22;13057;50.978;11.034;2022-11-18T10:34:47;5.80;99.90
25058;DHT22;13057;50.978;11.034;2022-11-18T10:37:24;5.70;99.90
25058;DHT22;13057;50.978;11.034;2022-11-18T10:39:52;5.70;99.90
25058;DHT22;13057;50.978;11.034;2022-11-18T10:42:27;5.70;99.90
25058;DHT22;13057;50.978;11.034;2022-11-18T10:44:55;5.70;99.90
25058;DHT22;13057;50.978;11.034;2022-11-18T10:47:25;5.70;99.90
25058;DHT22;13057;50.978;11.034;2022-11-18T10:49:53;5.70;99.90
25058;DHT22;13057;50.978;11.034;2022-11-18T10:52:19;5.70;99.90
25058;DHT22;13057;50.978;11.034;2022-11-18T10:55:06;5.60;99.90
25058;DHT22;13057;50.978;11.034;2022-11-18T10:57:35;5.60;99.90
25058;DHT22;13057;50.978;11.034;2022-11-18T11:00:04;5.70;99.90
25058;DHT22;13057;50.978;11.034;2022-11-18T11:02:40;5.70;99.90
25058;DHT22;13057;50.978;11.034;2022-11-18T11:05:18;5.60;99.90
25058;DHT22;13057;50.978;11.034;2022-11-18T11:07:44;5.60;99.90
25058;DHT22;13057;50.978;11.034;2022-11-18T11:10:20;5.60;99.90
25058;DHT22;13057;50.978;11.034;2022-11-18T11:12:56;5.50;99.90
25058;DHT22;13057;50.978;11.034;2022-11-18T11:15:35;5.50;99.90
25058;DHT22;13057;50.978;11.034;2022-11-18T11:18:13;5.40;99.90
25058;DHT22;13057;50.978;11.034;2022-11-18T11:20:53;5.30;99.90
25058;DHT22;13057;50.978;11.034;2022-11-18T11:23:19;5.40;99.90
25058;DHT22;13057;50.978;11.034;2022-11-18T11:25:54;5.40;99.90
25058;DHT22;13057;50.978;11.034;2022-11-18T11:28:30;5.30;99.90
25058;DHT22;13057;50.978;11.034;2022-11-18T11:31:16;5.30;99.90
25058;DHT22;13057;50.978;11.034;2022-11-18T11:34:04;5.30;99.90
25058;DHT22;13057;50.978;11.034;2022-11-18T11:37:06;5.30;99.90
25058;DHT22;13057;50.978;11.034;2022-11-18T11:39:46;5.30;99.90
25058;DHT22;13057;50.978;11.034;2022-11-18T11:42:34;5.30;99.90
25058;DHT22;13057;50.978;11.034;2022-11-18T11:45:17;5.40;99.90
25058;DHT22;13057;50.978;11.034;2022-11-18T11:48:08;5.30;99.90
25058;DHT22;13057;50.978;11.034;2022-11-18T11:50:53;5.30;99.90
25058;DHT22;13057;50.978;11.034;2022-11-18T11:53:44;5.20;99.90
25058;DHT22;13057;50.978;11.034;2022-11-18T11:56:39;5.30;99.90
25058;DHT22;13057;50.978;11.034;2022-11-18T11:59:18;5.20;99.90
25058;DHT22;13057;50.978;11.034;2022-11-18T12:04:47;5.00;99.90
25058;DHT22;13057;50.978;11.034;2022-11-18T12:07:17;5.00;99.90
25058;DHT22;13057;50.978;11.034;2022-11-18T12:09:55;5.10;99.90
25058;DHT22;13057;50.978;11.034;2022-11-18T12:12:33;5.10;99.90
25058;DHT22;13057;50.978;11.034;2022-11-18T12:15:15;5.10;99.90
25058;DHT22;13057;50.978;11.034;2022-11-18T12:17:54;5.00;99.90
25058;DHT22;13057;50.978;11.034;2022-11-18T12:20:36;4.90;99.90
25058;DHT22;13057;50.978;11.034;2022-11-18T12:26:03;4.90;99.90
25058;DHT22;13057;50.978;11.034;2022-11-18T12:28:34;4.90;99.90
25058;DHT22;13057;50.978;11.034;2022-11-18T12:34:01;4.80;99.90
25058;DHT22;13057;50.978;11.034;2022-11-18T12:36:30;4.80;99.90
25058;DHT22;13057;50.978;11.034;2022-11-18T12:38:58;4.80;99.90
25058;DHT22;13057;50.978;11.034;2022-11-18T12:41:53;4.70;99.90
25058;DHT22;13057;50.978;11.034;2022-11-18T12:44:31;4.70;99.90
25058;DHT22;13057;50.978;11.034;2022-11-18T12:46:58;4.70;99.90
25058;DHT22;13057;50.978;11.034;2022-11-18T12:52:44;4.50;99.90
25058;DHT22;13057;50.978;11.034;2022-11-18T12:55:15;4.50;99.90
25058;DHT22;13057;50.978;11.034;2022-11-18T12:57:43;4.50;99.90
25058;DHT22;13057;50.978;11.034;2022-11-18T13:02:51;4.50;99.90
25058;DHT22;13057;50.978;11.034;2022-11-18T13:05:21;4.50;99.90
25058;DHT22;13057;50.978;11.034;2022-11-18T13:07:52;4.50;99.90
25058;DHT22;13057;50.978;11.034;2022-11-18T13:10:33;4.50;99.90
25058;DHT22;13057;50.978;11.034;2022-11-18T13:13:00;4.50;99.90
25058;DHT22;13057;50.978;11.034;2022-11-18T13:15:27;4.40;99.90
25058;DHT22;13057;50.978;11.034;2022-11-18T13:18:09;4.30;99.90
25058;DHT22;13057;50.978;11.034;2022-11-18T13:20:38;4.20;99.90
25058;DHT22;13057;50.978;11.034;2022-11-18T13:23:28;4.20;99.90
25058;DHT22;13057;50.978;11.034;2022-11-18T13:26:11;4.20;99.90
25058;DHT22;13057;50.978;11.034;2022-11-18T13:31:34;4.10;99.90
25058;DHT22;13057;50.978;11.034;2022-11-18T13:34:08;4.10;99.90
25058;DHT22;13057;50.978;11.034;2022-11-18T13:36:42;4.10;99.90
25058;DHT22;13057;50.978;11.034;2022-11-18T13:39:18;4.00;99.90
25058;DHT22;13057;50.978;11.034;2022-11-18T13:41:46;4.00;99.90
25058;DHT22;13057;50.978;11.034;2022-11-18T13:44:16;3.90;99.90
25058;DHT22;13057;50.978;11.034;2022-11-18T13:46:45;3.90;99.90
25058;DHT22;13057;50.978;11.034;2022-11-18T13:49:17;3.90;99.90
25058;DHT22;13057;50.978;11.034;2022-11-18T13:51:44;3.80;99.90
25058;DHT22;13057;50.978;11.034;2022-11-18T13:54:24;3.80;99.90
25058;DHT22;13057;50.978;11.034;2022-11-18T13:56:52;3.80;99.90
25058;DHT22;13057;50.978;11.034;2022-11-18T13:59:20;3.70;99.90
25058;DHT22;13057;50.978;11.034;2022-11-18T14:01:53;3.80;99.90
25058;DHT22;13057;50.978;11.034;2022-11-18T14:04:21;3.70;99.90
25058;DHT22;13057;50.978;11.034;2022-11-18T14:06:48;3.80;99.90
25058;DHT22;13057;50.978;11.034;2022-11-18T14:09:25;3.70;99.90
25058;DHT22;13057;50.978;11.034;2022-11-18T14:12:04;3.70;99.90
25058;DHT22;13057;50.978;11.034;2022-11-18T14:14:35;3.70;99.90
25058;DHT22;13057;50.978;11.034;2022-11-18T14:17:14;3.60;99.90
25058;DHT22;13057;50.978;11.034;2022-11-18T14:19:41;3.70;99.90
25058;DHT22;13057;50.978;11.034;2022-11-18T14:22:14;3.60;99.90
25058;DHT22;13057;50.978;11.034;2022-11-18T14:24:41;3.60;99.90
25058;DHT22;13057;50.978;11.034;2022-11-18T14:29:56;3.60;99.90
25058;DHT22;13057;50.978;11.034;2022-11-18T14:32:24;3.50;99.90
25058;DHT22;13057;50.978;11.034;2022-11-18T14:34:58;3.50;99.90
25058;DHT22;13057;50.978;11.034;2022-11-18T14:37:24;3.40;99.90
25058;DHT22;13057;50.978;11.034;2022-11-18T14:39:55;3.50;99.90
25058;DHT22;13057;50.978;11.034;2022-11-18T14:42:21;3.60;99.90
25058;DHT22;13057;50.978;11.034;2022-11-18T14:44:48;3.50;99.90
25058;DHT22;13057;50.978;11.034;2022-11-18T14:47:25;3.40;99.90
25058;DHT22;13057;50.978;11.034;2022-11-18T14:49:51;3.40;99.90
25058;DHT22;13057;50.978;11.034;2022-11-18T14:52:17;3.50;99.90
25058;DHT22;13057;50.978;11.034;2022-11-18T14:54:43;3.40;99.90
25058;DHT22;13057;50.978;11.034;2022-11-18T14:57:13;3.50;99.90
25058;DHT22;13057;50.978;11.034;2022-11-18T14:59:39;3.40;99.90
25058;DHT22;13057;50.978;11.034;2022-11-18T15:02:10;3.30;99.90
25058;DHT22;13057;50.978;11.034;2022-11-18T15:04:37;3.30;99.90
25058;DHT22;13057;50.978;11.034;2022-11-18T15:07:03;3.30;99.90
25058;DHT22;13057;50.978;11.034;2022-11-18T15:09:29;3.20;99.90
25058;DHT22;13057;50.978;11.034;2022-11-18T15:11:55;3.20;99.90
25058;DHT22;13057;50.978;11.034;2022-11-18T15:14:21;3.30;99.90
25058;DHT22;13057;50.978;11.034;2022-11-18T15:16:46;3.30;99.90
25058;DHT22;13057;50.978;11.034;2022-11-18T15:19:14;3.30;99.90
25058;DHT22;13057;50.978;11.034;2022-11-18T15:21:40;3.30;99.90
25058;DHT22;13057;50.978;11.034;2022-11-18T15:24:06;3.20;99.90
25058;DHT22;13057;50.978;11.034;2022-11-18T15:26:37;3.10;99.90
25058;DHT22;13057;50.978;11.034;2022-11-18T15:29:03;3.00;99.90
25058;DHT22;13057;50.978;11.034;2022-11-18T15:31:29;3.00;99.90
25058;DHT22;13057;50.978;11.034;2022-11-18T15:33:55;3.10;99.90
25058;DHT22;13057;50.978;11.034;2022-11-18T15:36:23;3.10;99.90
25058;DHT22;13057;50.978;11.034;2022-11-18T15:38:50;3.10;99.90
25058;DHT22;13057;50.978;11.034;2022-11-18T15:41:22;3.10;99.90
25058;DHT22;13057;50.978;11.034;2022-11-18T15:43:48;3.10;99.90
25058;DHT22;13057;50.978;11.034;2022-11-18T15:46:16;3.00;99.90
25058;DHT22;13057;50.978;11.034;2022-11-18T15:48:44;2.90;99.90
25058;DHT22;13057;50.978;11.034;2022-11-18T15:51:14;2.80;99.90
25058;DHT22;13057;50.978;11.034;2022-11-18T15:53:40;2.90;99.90
25058;DHT22;13057;50.978;11.034;2022-11-18T15:56:26;2.80;99.90
25058;DHT22;13057;50.978;11.034;2022-11-18T15:58:55;2.80;99.90
25058;DHT22;13057;50.978;11.034;2022-11-18T16:01:21;2.80;99.90
25058;DHT22;13057;50.978;11.034;2022-11-18T16:03:48;2.90;99.90
25058;DHT22;13057;50.978;11.034;2022-11-18T16:06:14;2.80;99.90
25058;DHT22;13057;50.978;11.034;2022-11-18T16:08:40;2.80;99.90
25058;DHT22;13057;50.978;11.034;2022-11-18T16:11:08;2.80;99.90
25058;DHT22;13057;50.978;11.034;2022-11-18T16:13:47;2.80;99.90
25058;DHT22;13057;50.978;11.034;2022-11-18T16:16:18;2.80;99.90
25058;DHT22;13057;50.978;11.034;2022-11-18T16:18:43;2.80;99.90
25058;DHT22;13057;50.978;11.034;2022-11-18T16:21:09;2.80;99.90